Time;durP1;ratioP1;P1;durP2;ratioP2;P2;SDS_P1;SDS_P2;PMS_P1;PMS_P2;Temp;Humidity;BMP_temperature;BMP_pressure;BME280_temperature;BME280_humidity;BME280_pressure;Samples;Min_cycle;Max_cycle;Signal;HPM_P1;HPM_P2
2022/06/03 00:01:14;;;;;;;9.57;3.92;;;22.10;99.90;;;;;;5031701;28;20526;-82
2022/06/03 00:04:03;;;;;;;5.13;3.60;;;22.10;99.90;;;;;;5020064;28;20036;-82
2022/06/03 00:07:07;;;;;;;7.38;3.53;;;22.00;99.90;;;;;;5038111;28;20116;-82
2022/06/03 00:09:51;;;;;;;6.90;3.85;;;22.00;99.90;;;;;;4961142;28;20037;-81
2022/06/03 00:12:35;;;;;;;5.68;4.30;;;21.90;99.90;;;;;;5043345;28;20530;-82
2022/06/03 00:15:16;;;;;;;4.65;3.88;;;21.90;99.90;;;;;;5025241;28;20116;-82
2022/06/03 00:18:09;;;;;;;5.10;3.65;;;21.90;99.90;;;;;;5037789;28;20069;-81
2022/06/03 00:20:44;;;;;;;13.52;3.75;;;21.80;99.90;;;;;;5037075;28;20037;-83
2022/06/03 00:23:41;;;;;;;5.88;3.50;;;21.70;99.90;;;;;;5025088;28;20379;-83
2022/06/03 00:26:32;;;;;;;5.57;3.78;;;21.70;99.90;;;;;;5008707;28;20109;-82
2022/06/03 00:29:25;;;;;;;6.55;3.20;;;21.70;99.90;;;;;;5022779;28;20024;-82
2022/06/03 00:32:27;;;;;;;3.97;3.13;;;21.70;99.90;;;;;;5022171;28;20036;-82
2022/06/03 00:35:10;;;;;;;4.03;2.75;;;21.70;99.90;;;;;;5042994;28;20025;-81
2022/06/03 00:38:33;;;;;;;4.32;2.97;;;21.70;99.90;;;;;;5032176;28;20040;-82
2022/06/03 00:41:21;;;;;;;3.53;2.70;;;21.70;99.90;;;;;;5021677;28;20479;-82
2022/06/03 00:44:04;;;;;;;3.13;2.72;;;21.70;99.90;;;;;;5024078;28;20051;-82
2022/06/03 00:46:59;;;;;;;3.30;2.75;;;21.70;99.90;;;;;;5040274;28;20017;-82
2022/06/03 00:49:47;;;;;;;8.63;2.58;;;21.70;99.90;;;;;;5045230;28;20028;-82
2022/06/03 00:52:37;;;;;;;4.75;2.75;;;21.70;99.90;;;;;;5046144;28;20044;-82
2022/06/03 00:55:09;;;;;;;4.70;2.58;;;21.70;99.90;;;;;;5044411;28;20496;-82
2022/06/03 00:57:34;;;;;;;6.95;2.80;;;21.80;99.90;;;;;;5041779;28;20036;-82
2022/06/03 01:00:24;;;;;;;4.95;2.22;;;21.70;99.90;;;;;;5040495;28;20029;-82
2022/06/03 01:03:34;;;;;;;3.78;2.28;;;21.70;99.90;;;;;;5030768;28;20029;-82
2022/06/03 01:06:36;;;;;;;2.65;2.45;;;21.70;99.90;;;;;;5047086;28;20025;-82
2022/06/03 01:09:21;;;;;;;5.72;2.45;;;21.70;99.90;;;;;;5038945;28;20022;-81
2022/06/03 01:12:26;;;;;;;7.85;1.95;;;21.60;99.90;;;;;;5047303;28;20423;-84
2022/06/03 01:15:13;;;;;;;3.20;2.40;;;21.60;99.90;;;;;;5031496;28;20053;-82
2022/06/03 01:18:00;;;;;;;6.85;2.25;;;21.60;99.90;;;;;;5023760;28;20024;-81
2022/06/03 01:20:45;;;;;;;2.60;2.08;;;21.60;99.90;;;;;;5042606;28;20021;-81
2022/06/03 01:23:48;;;;;;;2.17;2.05;;;21.70;99.90;;;;;;5038457;28;20013;-81
2022/06/03 01:26:32;;;;;;;;;;;21.70;99.90;;;;;;5018929;28;20528;-81
2022/06/03 01:29:32;;;;;;;4.88;2.35;;;21.70;99.90;;;;;;5037508;28;19909;-81
2022/06/03 01:32:23;;;;;;;5.45;1.70;;;21.60;99.90;;;;;;5020522;28;20544;-83
2022/06/03 01:35:10;;;;;;;6.50;2.17;;;21.60;99.90;;;;;;5022504;28;20046;-83
2022/06/03 01:38:14;;;;;;;2.13;1.70;;;21.50;99.90;;;;;;5045300;28;20017;-82
2022/06/03 01:41:25;;;;;;;5.50;2.25;;;21.50;99.90;;;;;;5040700;28;20025;-82
2022/06/03 01:44:06;;;;;;;4.20;2.05;;;21.50;99.90;;;;;;5011419;28;20068;-84
2022/06/03 01:46:34;;;;;;;3.72;1.90;;;21.50;99.90;;;;;;5027633;28;20025;-84
2022/06/03 01:49:14;;;;;;;1.95;1.75;;;21.40;99.90;;;;;;5043597;28;20084;-83
2022/06/03 01:52:10;;;;;;;4.18;2.03;;;21.40;99.90;;;;;;5044220;28;20040;-83
2022/06/03 01:55:16;;;;;;;1.90;1.80;;;21.40;99.90;;;;;;5037495;28;20044;-82
2022/06/03 01:58:00;;;;;;;2.70;1.75;;;21.50;99.90;;;;;;5045137;28;20072;-81
2022/06/03 02:00:34;;;;;;;4.05;2.05;;;21.50;99.90;;;;;;5016630;28;20882;-82
2022/06/03 02:03:17;;;;;;;3.00;2.10;;;21.40;99.90;;;;;;5017726;28;20387;-83
2022/06/03 02:05:49;;;;;;;7.40;2.30;;;21.40;99.90;;;;;;5042176;28;20050;-82
2022/06/03 02:08:46;;;;;;;2.28;2.08;;;21.40;99.90;;;;;;5027176;28;20025;-83
2022/06/03 02:11:30;;;;;;;3.75;1.90;;;21.40;99.90;;;;;;5038777;28;20052;-83
2022/06/03 02:14:08;;;;;;;2.13;1.90;;;21.40;99.90;;;;;;5017965;28;20514;-82
2022/06/03 02:16:45;;;;;;;2.78;1.75;;;21.30;99.90;;;;;;5025189;28;20078;-82
2022/06/03 02:19:21;;;;;;;3.70;2.28;;;21.30;99.90;;;;;;5025771;28;20380;-82
2022/06/03 02:21:51;;;;;;;5.03;2.33;;;21.20;99.90;;;;;;5026519;28;20060;-82
2022/06/03 02:24:36;;;;;;;5.05;2.10;;;21.30;99.90;;;;;;5041131;28;20472;-82
2022/06/03 02:27:13;;;;;;;4.95;2.40;;;21.20;99.90;;;;;;5047275;28;20498;-83
2022/06/03 02:33:09;;;;;;;5.38;2.38;;;21.20;99.90;;;;;;5039721;28;20499;-83
2022/06/03 02:35:49;;;;;;;3.55;2.28;;;21.10;99.90;;;;;;5039491;28;20388;-81
2022/06/03 02:38:44;;;;;;;4.75;2.15;;;21.10;99.90;;;;;;5045254;28;20491;-82
2022/06/03 02:41:15;;;;;;;5.07;2.10;;;21.00;99.90;;;;;;5039221;28;20383;-82
2022/06/03 02:44:18;;;;;;;3.47;2.30;;;21.10;99.90;;;;;;5045209;28;20017;-82
2022/06/03 02:46:44;;;;;;;;;;;21.00;99.90;;;;;;5042122;28;20022;-82
2022/06/03 02:49:52;;;;;;;4.00;1.95;;;21.00;99.90;;;;;;5042493;28;19927;-83
2022/06/03 02:52:50;;;;;;;4.85;2.30;;;21.00;99.90;;;;;;5023049;28;20073;-82
2022/06/03 02:55:19;;;;;;;2.72;2.35;;;21.00;99.90;;;;;;5020525;28;20042;-83
2022/06/03 02:58:11;;;;;;;3.08;2.45;;;21.00;99.90;;;;;;5020053;28;20025;-83
2022/06/03 03:01:09;;;;;;;3.20;2.20;;;21.00;99.90;;;;;;5017498;28;20041;-82
2022/06/03 03:03:52;;;;;;;4.55;2.55;;;20.90;99.90;;;;;;5023061;28;20014;-82
2022/06/03 03:06:55;;;;;;;3.55;2.38;;;20.90;99.90;;;;;;5019940;28;20531;-82
2022/06/03 03:09:38;;;;;;;3.13;2.20;;;20.90;99.90;;;;;;5020919;28;20021;-82
2022/06/03 03:12:16;;;;;;;2.83;2.25;;;20.90;99.90;;;;;;5025599;28;20112;-82
2022/06/03 03:15:09;;;;;;;2.47;2.28;;;20.80;99.90;;;;;;5017820;28;20038;-82
2022/06/03 03:17:56;;;;;;;3.08;2.40;;;20.80;99.90;;;;;;5019428;28;20029;-84
2022/06/03 03:20:46;;;;;;;3.58;2.28;;;20.90;99.90;;;;;;5020028;28;20029;-81
2022/06/03 03:23:38;;;;;;;5.03;2.42;;;20.90;99.90;;;;;;5019629;28;20022;-81
2022/06/03 03:26:35;;;;;;;3.53;2.60;;;20.90;99.90;;;;;;5033064;28;20048;-81
2022/06/03 03:29:38;;;;;;;8.90;2.35;;;20.80;99.90;;;;;;5021003;28;20433;-82
2022/06/03 03:32:22;;;;;;;5.32;2.45;;;20.80;99.90;;;;;;5025672;28;20481;-81
2022/06/03 03:35:12;;;;;;;4.15;2.30;;;20.80;99.90;;;;;;5023376;28;20038;-82
2022/06/03 03:38:16;;;;;;;2.83;2.60;;;20.80;99.90;;;;;;5019070;28;20412;-81
2022/06/03 03:40:57;;;;;;;5.13;2.55;;;20.70;99.90;;;;;;4992389;28;20157;-82
2022/06/03 03:43:56;;;;;;;5.43;2.15;;;20.80;99.90;;;;;;5023348;28;20022;-82
2022/06/03 03:47:02;;;;;;;3.35;2.28;;;20.90;99.90;;;;;;5019434;28;20029;-82
2022/06/03 03:49:47;;;;;;;2.22;2.13;;;20.90;99.90;;;;;;5021945;28;20017;-83
2022/06/03 03:52:51;;;;;;;4.40;2.40;;;20.90;99.90;;;;;;5019518;28;20037;-82
2022/06/03 03:55:23;;;;;;;3.38;2.42;;;21.00;99.90;;;;;;5025311;28;20063;-83
2022/06/03 03:58:26;;;;;;;7.83;3.00;;;21.00;99.90;;;;;;5024003;28;20026;-83
2022/06/03 04:01:20;;;;;;;2.17;2.05;;;21.00;99.90;;;;;;5019211;28;20030;-83
2022/06/03 04:04:10;;;;;;;4.07;2.28;;;21.10;99.90;;;;;;5011619;28;20033;-84
2022/06/03 04:07:04;;;;;;;3.10;2.63;;;21.20;99.90;;;;;;5018557;28;20062;-83
2022/06/03 04:09:48;;;;;;;2.40;2.20;;;21.20;99.90;;;;;;5018625;28;20071;-83
2022/06/03 04:13:01;;;;;;;4.68;2.25;;;21.20;99.90;;;;;;5018709;28;20026;-81
2022/06/03 04:16:01;;;;;;;6.88;2.25;;;21.20;99.90;;;;;;4976121;28;20042;-84
2022/06/03 04:18:45;;;;;;;2.85;2.10;;;21.30;99.90;;;;;;5033065;28;20025;-83
2022/06/03 04:21:52;;;;;;;3.50;2.50;;;21.40;99.90;;;;;;5019227;28;20029;-82
2022/06/03 04:24:34;;;;;;;3.22;2.00;;;21.40;99.90;;;;;;4924204;28;20538;-81
2022/06/03 04:27:20;;;;;;;3.40;2.00;;;21.50;99.90;;;;;;4949651;28;20165;-82
2022/06/03 04:30:13;;;;;;;3.10;2.20;;;21.60;99.90;;;;;;4999656;28;20042;-82
2022/06/03 04:33:07;;;;;;;4.95;2.28;;;21.70;99.90;;;;;;5023544;28;20045;-83
2022/06/03 04:35:57;;;;;;;2.50;2.30;;;21.70;99.90;;;;;;5033052;28;20101;-83
2022/06/03 04:38:41;;;;;;;3.00;2.28;;;21.70;99.90;;;;;;5019590;28;20022;-83
2022/06/03 04:41:34;;;;;;;3.30;2.25;;;21.70;99.90;;;;;;5012957;28;20026;-83
2022/06/03 04:44:12;;;;;;;2.42;2.15;;;21.70;99.90;;;;;;5015215;28;20025;-82
2022/06/03 04:46:57;;;;;;;2.65;2.08;;;21.70;99.90;;;;;;5015597;28;20137;-82
2022/06/03 04:49:56;;;;;;;3.00;2.00;;;21.80;99.90;;;;;;5021235;28;20423;-82
2022/06/03 04:52:58;;;;;;;2.58;2.15;;;21.80;99.90;;;;;;5033502;28;20041;-82
2022/06/03 04:55:42;;;;;;;2.83;2.00;;;21.90;99.90;;;;;;5022503;28;20029;-83
2022/06/03 04:58:20;;;;;;;4.13;2.28;;;22.00;99.90;;;;;;5015879;28;20499;-83
2022/06/03 05:01:10;;;;;;;5.03;2.17;;;22.00;99.90;;;;;;5036682;28;20025;-83
2022/06/03 05:04:02;;;;;;;3.67;2.45;;;22.00;99.90;;;;;;5041303;28;20030;-83
2022/06/03 05:06:43;;;;;;;2.20;2.00;;;22.00;99.90;;;;;;5024462;28;20074;-83
2022/06/03 05:10:02;;;;;;;3.20;1.90;;;22.10;99.90;;;;;;5021995;28;20072;-83
2022/06/03 05:12:47;;;;;;;3.88;2.28;;;22.20;99.90;;;;;;4926838;29;20517;-83
2022/06/03 05:15:43;;;;;;;5.75;2.20;;;22.20;99.90;;;;;;5026445;28;20372;-83
2022/06/03 05:18:46;;;;;;;2.67;2.08;;;22.30;99.90;;;;;;5040167;28;20098;-84
2022/06/03 05:21:36;;;;;;;4.65;2.30;;;22.30;99.90;;;;;;5013008;28;20490;-85
2022/06/03 05:24:21;;;;;;;3.58;2.40;;;22.50;99.90;;;;;;5011609;28;20029;-83
2022/06/03 05:27:15;;;;;;;6.18;2.15;;;22.60;99.90;;;;;;5047821;28;20052;-83
2022/06/03 05:29:44;;;;;;;7.57;2.17;;;22.60;99.90;;;;;;5037380;28;20413;-82
2022/06/03 05:32:31;;;;;;;2.13;1.83;;;22.70;99.90;;;;;;5035703;28;20034;-83
2022/06/03 05:35:17;;;;;;;4.70;1.92;;;22.80;99.90;;;;;;5045265;28;20095;-83
2022/06/03 05:37:51;;;;;;;2.40;2.20;;;22.80;99.90;;;;;;5041426;28;20418;-83
2022/06/03 05:40:39;;;;;;;3.88;2.20;;;22.90;99.90;;;;;;5042269;28;20032;-82
2022/06/03 05:43:36;;;;;;;3.50;2.45;;;23.00;99.90;;;;;;5046824;28;20018;-82
2022/06/03 05:46:16;;;;;;;3.55;2.30;;;23.00;99.90;;;;;;5046395;28;20029;-82
2022/06/03 05:48:57;;;;;;;2.80;2.20;;;23.10;99.90;;;;;;5027764;28;20056;-82
2022/06/03 05:51:35;;;;;;;3.88;2.13;;;23.20;99.90;;;;;;5026507;28;20083;-83
2022/06/03 05:54:14;;;;;;;6.07;2.17;;;23.20;99.90;;;;;;5025554;28;20136;-83
2022/06/03 05:56:58;;;;;;;2.45;1.98;;;23.30;99.90;;;;;;5030045;28;20124;-83
2022/06/03 05:59:55;;;;;;;3.38;2.28;;;23.30;99.90;;;;;;5041586;28;20026;-83
2022/06/03 06:02:27;;;;;;;3.25;2.28;;;23.40;99.90;;;;;;4979016;28;20487;-82
2022/06/03 06:05:10;;;;;;;4.73;2.07;;;23.40;99.90;;;;;;5025648;28;20029;-82
2022/06/03 06:07:53;;;;;;;3.17;2.10;;;23.50;99.90;;;;;;5040743;28;20035;-83
2022/06/03 06:10:40;;;;;;;3.25;2.42;;;23.60;99.90;;;;;;5041838;28;20052;-82
2022/06/03 06:13:34;;;;;;;3.38;1.88;;;23.70;99.90;;;;;;5037231;28;20075;-83
2022/06/03 06:16:08;;;;;;;8.00;2.58;;;23.80;99.90;;;;;;5045846;28;20054;-82
2022/06/03 06:18:38;;;;;;;2.85;2.10;;;23.90;99.90;;;;;;5043529;28;20013;-83
2022/06/03 06:21:28;;;;;;;4.03;2.10;;;24.00;99.90;;;;;;5038470;28;20032;-86
2022/06/03 06:24:27;;;;;;;3.28;2.20;;;24.00;99.90;;;;;;5044320;28;20373;-82
2022/06/03 06:27:30;;;;;;;13.02;2.67;;;24.20;99.90;;;;;;5017592;28;20231;-83
2022/06/03 06:30:09;;;;;;;2.30;2.10;;;24.30;99.90;;;;;;5039315;28;20021;-83
2022/06/03 06:33:11;;;;;;;4.55;2.10;;;24.40;99.90;;;;;;5038564;28;20079;-83
2022/06/03 06:35:48;;;;;;;2.95;2.10;;;24.50;99.90;;;;;;5039897;28;20430;-85
2022/06/03 06:38:38;;;;;;;3.00;2.13;;;24.60;99.90;;;;;;5034304;28;20017;-83
2022/06/03 06:41:26;;;;;;;3.20;2.38;;;24.70;99.90;;;;;;5016124;28;20404;-82
2022/06/03 06:44:15;;;;;;;3.85;2.13;;;24.80;99.90;;;;;;5017614;28;20025;-84
2022/06/03 06:47:18;;;;;;;3.38;2.00;;;24.90;99.90;;;;;;5019876;28;20083;-83
2022/06/03 06:49:47;;;;;;;2.85;2.00;;;25.00;99.90;;;;;;5014615;28;20021;-83
2022/06/03 06:52:39;;;;;;;3.58;2.00;;;25.10;99.90;;;;;;5026833;28;20044;-84
2022/06/03 06:55:27;;;;;;;4.70;2.10;;;25.20;99.90;;;;;;5039405;28;20139;-83
2022/06/03 06:57:56;;;;;;;3.72;2.30;;;25.30;99.90;;;;;;5033956;28;20044;-83
2022/06/03 07:00:33;;;;;;;5.47;2.30;;;25.50;99.90;;;;;;5045537;28;20029;-83
2022/06/03 07:03:15;;;;;;;2.38;1.90;;;25.60;99.90;;;;;;5037596;28;20075;-83
2022/06/03 07:06:03;;;;;;;3.78;2.30;;;25.80;99.90;;;;;;5012632;28;20514;-84
2022/06/03 07:08:38;;;;;;;3.13;2.13;;;25.90;99.90;;;;;;5038055;28;20032;-83
2022/06/03 07:11:25;;;;;;;2.33;2.10;;;26.00;99.90;;;;;;5034725;28;20018;-83
2022/06/03 07:13:55;;;;;;;2.50;2.15;;;26.00;99.90;;;;;;5011903;28;20563;-82
2022/06/03 07:20:05;;;;;;;3.05;2.40;;;26.10;99.90;;;;;;5040283;28;20506;-83
2022/06/03 07:22:57;;;;;;;2.63;2.20;;;26.20;99.90;;;;;;5044298;28;20029;-83
2022/06/03 07:25:31;;;;;;;2.75;2.35;;;26.30;99.90;;;;;;5041551;28;20484;-83
2022/06/03 07:28:35;;;;;;;3.22;2.22;;;26.40;99.90;;;;;;5040478;28;20025;-83
2022/06/03 07:31:00;;;;;;;3.65;2.25;;;26.50;99.90;;;;;;4998113;28;20037;-83
2022/06/03 07:33:29;;;;;;;5.25;2.40;;;26.50;99.90;;;;;;5038914;28;20035;-83
2022/06/03 07:36:15;;;;;;;3.83;2.58;;;26.50;99.90;;;;;;5027125;28;20029;-83
2022/06/03 07:38:51;;;;;;;4.63;2.35;;;26.60;99.90;;;;;;5042797;28;20025;-83
2022/06/03 07:41:32;;;;;;;3.38;2.25;;;26.70;99.90;;;;;;5023775;28;20024;-83
2022/06/03 07:44:34;;;;;;;4.25;2.50;;;26.80;99.90;;;;;;5036533;28;20029;-83
2022/06/03 07:47:03;;;;;;;6.47;2.58;;;26.90;99.90;;;;;;5037130;28;20025;-83
2022/06/03 07:49:34;;;;;;;4.10;2.38;;;27.00;99.90;;;;;;5041994;28;20525;-83
2022/06/03 07:52:20;;;;;;;5.57;3.42;;;27.20;99.90;;;;;;5029116;28;20055;-83
2022/06/03 07:54:58;;;;;;;3.65;2.50;;;27.30;99.90;;;;;;5037867;28;20033;-83
2022/06/03 07:57:27;;;;;;;9.93;2.50;;;27.40;99.90;;;;;;5026439;28;20097;-83
2022/06/03 07:59:59;;;;;;;4.38;2.42;;;27.50;99.90;;;;;;5038023;28;20025;-83
2022/06/03 08:02:26;;;;;;;9.65;3.05;;;27.70;99.90;;;;;;5040264;28;20025;-81
2022/06/03 08:05:18;;;;;;;6.47;2.67;;;27.80;99.90;;;;;;5042805;28;20036;-83
2022/06/03 08:10:57;;;;;;;3.13;2.60;;;28.00;99.90;;;;;;5040169;28;20040;-83
2022/06/03 08:13:23;;;;;;;6.30;3.17;;;28.10;99.90;;;;;;5042506;28;20065;-83
2022/06/03 08:16:00;;;;;;;4.60;2.97;;;28.20;99.90;;;;;;5045423;28;20108;-83
2022/06/03 08:18:32;;;;;;;6.38;3.05;;;28.30;99.90;;;;;;5019826;28;20033;-83
2022/06/03 08:21:03;;;;;;;7.75;3.00;;;28.40;99.90;;;;;;5026512;28;20029;-83
2022/06/03 08:23:32;;;;;;;9.35;3.72;;;28.50;99.90;;;;;;5043955;28;20039;-83
2022/06/03 08:25:59;;;;;;;11.55;4.00;;;28.80;99.90;;;;;;5022904;28;20028;-83
2022/06/03 08:28:31;;;;;;;7.47;3.03;;;29.10;99.90;;;;;;5024678;28;20026;-83
2022/06/03 08:31:00;;;;;;;5.28;2.90;;;29.50;99.90;;;;;;5035797;28;20068;-83
2022/06/03 08:33:52;;;;;;;7.95;3.35;;;29.90;99.90;;;;;;5037936;28;20113;-83
2022/06/03 08:36:24;;;;;;;9.07;3.03;;;30.20;99.90;;;;;;5038525;28;20372;-82
2022/06/03 08:39:04;;;;;;;11.80;3.30;;;30.30;99.90;;;;;;5014366;28;20027;-83
2022/06/03 08:41:38;;;;;;;10.02;3.30;;;30.20;99.90;;;;;;5038355;28;20029;-83
2022/06/03 08:44:18;;;;;;;3.67;3.10;;;30.10;99.90;;;;;;5022133;28;20683;-83
2022/06/03 08:46:58;;;;;;;8.30;3.30;;;30.10;99.90;;;;;;5010417;28;20030;-83
2022/06/03 08:49:42;;;;;;;10.90;3.35;;;29.90;99.90;;;;;;5023831;28;20025;-83
2022/06/03 08:52:10;;;;;;;6.82;3.00;;;29.90;99.90;;;;;;5031251;28;20132;-83
2022/06/03 08:54:52;;;;;;;9.18;3.10;;;29.80;99.90;;;;;;5031262;28;20033;-83
2022/06/03 08:57:20;;;;;;;7.80;2.97;;;29.80;99.90;;;;;;5040279;28;20545;-83
2022/06/03 08:59:55;;;;;;;7.07;3.25;;;29.80;99.90;;;;;;5027138;28;20774;-83
2022/06/03 09:02:38;;;;;;;9.45;3.35;;;29.70;99.90;;;;;;5038685;28;20049;-83
2022/06/03 09:05:18;;;;;;;9.93;3.90;;;29.60;99.90;;;;;;5032436;28;20029;-83
2022/06/03 09:07:54;;;;;;;6.60;3.42;;;29.50;99.90;;;;;;5026283;28;20064;-83
2022/06/03 09:10:30;;;;;;;15.23;3.95;;;29.70;99.90;;;;;;5043433;28;20082;-82
2022/06/03 09:13:05;;;;;;;7.90;4.20;;;29.70;99.90;;;;;;5046722;28;20075;-82
2022/06/03 09:15:40;;;;;;;10.50;3.70;;;29.40;99.90;;;;;;5039521;28;20482;-82
2022/06/03 09:18:13;;;;;;;8.75;3.47;;;29.20;99.90;;;;;;5040228;28;20014;-82
2022/06/03 09:20:45;;;;;;;14.35;4.63;;;29.40;99.90;;;;;;5043106;28;20053;-82
2022/06/03 09:23:16;;;;;;;7.82;4.18;;;29.40;99.90;;;;;;5046121;28;20472;-83
2022/06/03 09:25:55;;;;;;;12.02;4.30;;;29.30;99.90;;;;;;5044893;28;20059;-82
2022/06/03 09:28:26;;;;;;;8.77;4.20;;;29.20;99.90;;;;;;5039815;28;20040;-83
2022/06/03 09:30:53;;;;;;;9.98;3.88;;;29.10;99.90;;;;;;5042675;28;20036;-83
2022/06/03 09:33:22;;;;;;;9.55;3.90;;;29.00;99.90;;;;;;5040941;28;20022;-83
2022/06/03 09:35:51;;;;;;;9.52;3.53;;;29.10;99.90;;;;;;5040108;28;20060;-83
2022/06/03 09:38:21;;;;;;;12.10;3.80;;;29.10;99.90;;;;;;5047518;28;20023;-82
2022/06/03 09:40:48;;;;;;;12.65;4.00;;;29.10;99.90;;;;;;5043820;28;20029;-83
2022/06/03 09:43:22;;;;;;;7.22;3.70;;;29.30;99.90;;;;;;5043573;28;20530;-82
2022/06/03 09:45:51;;;;;;;7.47;3.72;;;29.30;99.90;;;;;;5043879;28;20093;-83
2022/06/03 09:48:26;;;;;;;10.23;3.53;;;29.40;99.90;;;;;;5021210;28;20021;-82
2022/06/03 09:51:00;;;;;;;11.70;4.18;;;29.40;99.90;;;;;;5044151;28;20076;-83
2022/06/03 09:53:30;;;;;;;14.32;3.65;;;29.60;99.90;;;;;;5045417;28;20131;-83
2022/06/03 09:56:01;;;;;;;8.68;3.60;;;29.70;99.90;;;;;;5041072;28;20017;-83
2022/06/03 09:58:33;;;;;;;14.68;3.97;;;29.70;99.90;;;;;;5024200;28;20108;-82
2022/06/03 10:01:01;;;;;;;11.60;4.45;;;29.70;99.90;;;;;;5041448;28;20032;-82
2022/06/03 10:03:27;;;;;;;5.78;4.00;;;29.30;99.90;;;;;;5024700;28;20491;-83
2022/06/03 10:05:59;;;;;;;11.50;3.97;;;29.20;99.90;;;;;;5042842;28;20025;-83
2022/06/03 10:08:28;;;;;;;7.43;3.40;;;29.00;99.90;;;;;;5027413;28;20617;-83
2022/06/03 10:13:42;;;;;;;12.20;3.50;;;28.80;99.90;;;;;;5044992;28;20095;-84
2022/06/03 10:16:10;;;;;;;14.93;3.80;;;28.60;99.90;;;;;;5041025;28;20045;-83
2022/06/03 10:18:40;;;;;;;4.60;3.55;;;28.70;99.90;;;;;;5040049;28;20033;-82
2022/06/03 10:21:06;;;;;;;6.43;3.30;;;28.80;99.90;;;;;;5036211;28;20025;-82
2022/06/03 10:23:43;;;;;;;8.85;3.78;;;28.90;99.90;;;;;;5027023;28;20075;-83
2022/06/03 10:26:17;;;;;;;12.13;3.63;;;29.10;99.90;;;;;;5042538;28;20105;-84
2022/06/03 10:28:43;;;;;;;9.07;3.97;;;29.20;99.90;;;;;;5042947;28;20025;-83
2022/06/03 10:31:18;;;;;;;8.73;3.72;;;29.30;99.90;;;;;;5023388;28;20025;-83
2022/06/03 10:33:58;;;;;;;7.18;3.88;;;29.40;99.90;;;;;;5039405;28;20480;-83
2022/06/03 10:36:45;;;;;;;13.23;4.18;;;29.60;99.90;;;;;;5027536;28;20449;-83
2022/06/03 10:39:17;;;;;;;6.65;3.65;;;29.70;99.90;;;;;;5023867;28;20029;-83
2022/06/03 10:41:49;;;;;;;10.55;4.22;;;29.70;99.90;;;;;;5038562;28;20017;-83
2022/06/03 10:44:25;;;;;;;15.18;4.35;;;29.80;99.90;;;;;;5040705;28;20027;-84
2022/06/03 10:46:57;;;;;;;8.52;3.97;;;30.00;99.90;;;;;;5041524;28;20108;-83
2022/06/03 10:49:25;;;;;;;8.00;3.80;;;30.10;99.90;;;;;;5041757;28;20484;-84
2022/06/03 11:02:55;;;;;;;12.10;4.40;;;29.30;99.90;;;;;;5047327;28;20052;-83
2022/06/03 11:05:25;;;;;;;6.63;3.72;;;29.40;99.90;;;;;;5038755;28;20376;-84
2022/06/03 11:08:03;;;;;;;7.97;3.58;;;29.30;99.90;;;;;;5038655;28;20028;-83
2022/06/03 11:10:50;;;;;;;6.72;3.65;;;29.10;99.90;;;;;;5043121;28;20013;-82
2022/06/03 11:13:28;;;;;;;9.90;4.10;;;28.80;99.90;;;;;;5037320;28;20170;-84
2022/06/03 11:15:55;;;;;;;9.07;4.00;;;28.60;99.90;;;;;;5026781;28;20022;-84
2022/06/03 11:18:32;;;;;;;6.70;3.58;;;28.50;99.90;;;;;;5043758;28;20503;-83
2022/06/03 11:21:16;;;;;;;13.80;4.43;;;28.50;99.90;;;;;;5023656;28;20025;-84
2022/06/03 11:23:42;;;;;;;7.55;4.07;;;28.50;99.90;;;;;;5026235;28;20029;-83
2022/06/03 11:26:08;;;;;;;10.23;4.65;;;28.50;99.90;;;;;;5039561;28;20025;-82
2022/06/03 11:28:42;;;;;;;11.00;4.43;;;28.40;99.90;;;;;;5045623;28;20464;-83
2022/06/03 11:31:30;;;;;;;6.35;3.83;;;28.50;99.90;;;;;;5032231;28;20029;-83
2022/06/03 11:34:00;;;;;;;10.65;4.13;;;28.60;99.90;;;;;;5017325;28;20040;-83
2022/06/03 11:36:52;;;;;;;12.82;4.20;;;28.40;99.90;;;;;;5044319;28;20017;-85
2022/06/03 11:39:20;;;;;;;11.98;4.35;;;28.40;99.90;;;;;;5022086;28;20030;-84
2022/06/03 11:41:58;;;;;;;15.00;5.10;;;28.60;99.90;;;;;;5037101;28;20049;-83
2022/06/03 11:44:53;;;;;;;9.27;4.50;;;28.90;99.90;;;;;;5042407;28;20017;-84
2022/06/03 11:47:27;;;;;;;12.38;4.05;;;28.60;99.90;;;;;;5033814;28;20029;-85
2022/06/03 11:49:54;;;;;;;10.15;4.25;;;28.60;99.90;;;;;;5040460;28;20026;-84
2022/06/03 11:52:21;;;;;;;9.73;4.20;;;28.60;99.90;;;;;;5044797;28;20670;-85
2022/06/03 11:54:48;;;;;;;9.52;4.10;;;28.60;99.90;;;;;;5039708;28;20033;-84
2022/06/03 11:57:14;;;;;;;9.00;3.72;;;28.70;99.90;;;;;;5045769;28;20437;-84
2022/06/03 11:59:58;;;;;;;9.63;3.97;;;28.90;99.90;;;;;;5039255;28;20112;-84
2022/06/03 12:02:31;;;;;;;9.43;4.10;;;29.40;99.90;;;;;;5026272;28;20074;-84
2022/06/03 12:05:21;;;;;;;9.43;4.03;;;30.70;99.90;;;;;;5042693;28;20108;-85
2022/06/03 12:08:35;;;;;;;9.15;4.13;;;32.00;99.90;;;;;;5038539;28;20127;-84
2022/06/03 12:11:07;;;;;;;15.70;4.32;;;32.60;99.90;;;;;;5017378;28;20033;-84
2022/06/03 12:13:33;;;;;;;;;;;32.40;99.90;;;;;;5023992;28;20056;-85
2022/06/03 12:16:17;;;;;;;14.43;4.55;;;31.30;99.90;;;;;;5037787;28;19967;-83
2022/06/03 12:18:55;;;;;;;10.05;4.30;;;31.00;99.90;;;;;;5042101;28;20027;-83
2022/06/03 12:21:30;;;;;;;9.60;4.45;;;30.40;99.90;;;;;;5043457;28;20023;-84
2022/06/03 12:24:16;;;;;;;10.95;4.43;;;30.10;99.90;;;;;;5041494;28;20037;-84
2022/06/03 12:26:50;;;;;;;13.07;4.90;;;29.90;99.90;;;;;;5044087;28;20218;-83
2022/06/03 12:29:28;;;;;;;9.23;4.60;;;29.50;99.90;;;;;;5039235;28;20399;-83
2022/06/03 12:31:55;;;;;;;13.43;5.22;;;29.20;99.90;;;;;;5034939;28;20018;-84
2022/06/03 12:34:26;;;;;;;7.47;4.35;;;29.10;99.90;;;;;;5023453;28;20082;-83
2022/06/03 12:37:01;;;;;;;20.00;4.75;;;29.10;99.90;;;;;;5015583;28;20022;-82
2022/06/03 12:39:27;;;;;;;14.70;4.40;;;29.10;99.90;;;;;;5041673;28;20025;-83
2022/06/03 12:41:59;;;;;;;13.18;4.78;;;29.20;99.90;;;;;;5033526;28;20022;-83
2022/06/03 12:44:49;;;;;;;15.68;4.57;;;29.30;99.90;;;;;;5040115;28;20025;-83
2022/06/03 12:47:35;;;;;;;10.63;4.63;;;29.10;99.90;;;;;;5017879;28;20473;-84
2022/06/03 12:50:04;;;;;;;9.70;4.70;;;29.10;99.90;;;;;;5037892;28;20282;-83
2022/06/03 12:52:29;;;;;;;9.55;4.75;;;28.90;99.90;;;;;;5037173;28;20053;-84
2022/06/03 12:55:14;;;;;;;11.55;5.00;;;28.50;99.90;;;;;;5024690;28;20025;-83
2022/06/03 12:57:49;;;;;;;15.65;5.28;;;28.10;99.90;;;;;;5020340;28;20021;-83
2022/06/03 13:00:29;;;;;;;13.02;5.20;;;27.80;99.90;;;;;;5039081;28;20049;-83
2022/06/03 13:02:58;;;;;;;17.20;5.03;;;27.60;99.90;;;;;;5019433;28;20029;-83
2022/06/03 13:05:27;;;;;;;11.52;4.90;;;27.50;99.90;;;;;;5021913;28;20025;-84
2022/06/03 13:08:01;;;;;;;10.48;4.47;;;27.80;99.90;;;;;;5017245;28;20060;-83
2022/06/03 13:10:29;;;;;;;8.70;4.45;;;27.90;99.90;;;;;;5032566;28;20029;-83
2022/06/03 13:13:16;;;;;;;9.52;4.35;;;28.20;99.90;;;;;;5016435;28;20059;-84
2022/06/03 13:15:44;;;;;;;9.32;5.05;;;28.50;99.90;;;;;;5037651;28;20083;-84
2022/06/03 13:18:18;;;;;;;10.10;4.05;;;28.80;99.90;;;;;;5019581;28;20013;-83
2022/06/03 13:21:02;;;;;;;13.60;4.13;;;28.80;99.90;;;;;;5042032;28;20017;-83
2022/06/03 13:23:53;;;;;;;10.00;5.10;;;28.60;99.90;;;;;;5013860;28;20034;-83
2022/06/03 13:26:22;;;;;;;17.83;5.60;;;28.70;99.90;;;;;;5018019;28;20571;-83
2022/06/03 13:28:55;;;;;;;11.23;4.47;;;28.60;99.90;;;;;;5007672;28;20025;-84
2022/06/03 13:31:26;;;;;;;12.57;5.07;;;28.80;99.90;;;;;;5037998;28;20022;-84
2022/06/03 13:34:16;;;;;;;11.30;4.70;;;29.00;99.90;;;;;;5035827;28;20036;-84
2022/06/03 13:36:51;;;;;;;9.45;3.78;;;29.20;99.90;;;;;;5036879;28;20024;-83
2022/06/03 13:39:29;;;;;;;8.38;4.40;;;29.20;99.90;;;;;;5044696;28;20048;-84
2022/06/03 13:45:32;;;;;;;11.55;4.45;;;28.90;99.90;;;;;;5043124;28;20617;-84
2022/06/03 13:47:58;;;;;;;8.90;4.85;;;29.00;99.90;;;;;;5040298;28;20048;-83
2022/06/03 13:50:34;;;;;;;28.38;6.30;;;28.80;99.90;;;;;;5041760;28;20479;-84
2022/06/03 13:53:04;;;;;;;13.85;5.45;;;28.60;99.90;;;;;;5047014;28;20037;-84
2022/06/03 13:55:38;;;;;;;13.77;4.40;;;28.40;99.90;;;;;;5040963;28;20089;-83
2022/06/03 13:58:24;;;;;;;8.77;4.90;;;28.30;99.90;;;;;;5017757;28;20029;-84
2022/06/03 14:00:50;;;;;;;16.55;4.70;;;28.10;99.90;;;;;;5040531;28;20505;-83
2022/06/03 14:03:28;;;;;;;11.10;4.57;;;27.90;99.90;;;;;;5041010;28;20055;-84
2022/06/03 14:06:05;;;;;;;8.35;4.32;;;27.60;99.90;;;;;;5043539;28;20086;-82
2022/06/03 14:08:33;;;;;;;10.43;4.93;;;27.40;99.90;;;;;;5041040;28;20018;-83
2022/06/03 14:11:11;;;;;;;8.48;4.28;;;27.20;99.90;;;;;;5042256;28;20025;-83
2022/06/03 14:13:51;;;;;;;17.20;5.35;;;27.10;99.90;;;;;;5045046;28;20037;-83
2022/06/03 14:16:28;;;;;;;6.18;4.65;;;27.00;99.90;;;;;;5037138;28;20029;-83
2022/06/03 14:19:00;;;;;;;11.20;5.53;;;26.90;99.90;;;;;;5035363;28;20023;-83
2022/06/03 14:21:41;;;;;;;10.23;5.17;;;26.90;99.90;;;;;;5035136;28;20029;-83
2022/06/03 14:24:25;;;;;;;18.60;5.07;;;26.70;99.90;;;;;;5035337;28;20033;-83
2022/06/03 14:27:01;;;;;;;11.23;4.97;;;26.60;99.90;;;;;;5041740;28;20380;-84